createdAt,value
2019-06-07T00:01:20.985Z,98.00
2019-06-07T00:03:46.352Z,97.70
2019-06-07T00:06:19.620Z,97.60
2019-06-07T00:11:09.920Z,97.70
2019-06-07T00:13:34.316Z,97.90
2019-06-07T00:16:01.292Z,98.20
2019-06-07T00:18:28.263Z,98.20
2019-06-07T00:20:55.184Z,97.80
2019-06-07T00:25:49.171Z,97.90
2019-06-07T00:33:13.571Z,97.70
2019-06-07T00:35:37.221Z,97.80
2019-06-07T00:38:04.200Z,97.90
2019-06-07T00:42:59.547Z,97.90
2019-06-07T00:45:26.509Z,98.10
2019-06-07T00:47:53.473Z,98.50
2019-06-07T00:50:23.483Z,98.50
2019-06-07T00:55:17.179Z,98.10
2019-06-07T01:00:08.382Z,98.10
2019-06-07T01:02:35.316Z,98.10
2019-06-07T01:05:02.433Z,98.50
2019-06-07T01:07:29.372Z,98.30
2019-06-07T01:09:56.318Z,98.60
2019-06-07T01:12:24.586Z,98.20
2019-06-07T01:14:50.343Z,98.60
2019-06-07T01:17:36.281Z,98.50
2019-06-07T01:19:49.688Z,98.60
2019-06-07T01:22:18.353Z,98.40
2019-06-07T01:24:43.570Z,98.20
2019-06-07T01:27:10.548Z,98.50
2019-06-07T01:29:37.492Z,98.50
2019-06-07T01:32:04.456Z,98.80
2019-06-07T01:34:31.423Z,97.90
2019-06-07T01:36:58.346Z,98.60
2019-06-07T01:39:29.732Z,98.60
2019-06-07T01:41:54.287Z,98.60
2019-06-07T01:44:24.165Z,99.10
2019-06-07T01:46:48.745Z,98.70
2019-06-07T01:49:15.710Z,99.00
2019-06-07T01:51:42.649Z,98.90
2019-06-07T01:56:36.563Z,98.60
2019-06-07T01:59:03.546Z,98.50
2019-06-07T02:01:35.194Z,98.30
2019-06-07T02:03:57.472Z,98.20
2019-06-07T02:06:27.925Z,98.50
2019-06-07T02:08:51.385Z,97.90
2019-06-07T02:11:20.906Z,98.00
2019-06-07T02:16:12.316Z,98.00
2019-06-07T02:19:00.656Z,98.30
2019-06-07T02:21:06.253Z,98.40
2019-06-07T02:23:33.780Z,98.40
2019-06-07T02:26:00.205Z,98.20
2019-06-07T02:28:36.961Z,98.20
2019-06-07T02:30:59.807Z,97.80
2019-06-07T02:33:25.350Z,98.20
2019-06-07T02:38:15.932Z,97.60
2019-06-07T02:40:42.895Z,97.70
2019-06-07T02:43:10.201Z,98.00
2019-06-07T02:45:43.152Z,97.70
2019-06-07T02:48:04.173Z,97.90
2019-06-07T02:50:35.442Z,98.10
2019-06-07T02:52:58.092Z,98.00
2019-06-07T02:55:28.895Z,98.30
2019-06-07T02:57:51.996Z,98.50
2019-06-07T03:00:55.410Z,98.30
2019-06-07T03:03:06.276Z,98.40
2019-06-07T03:05:36.282Z,98.30
2019-06-07T03:08:00.312Z,98.10
2019-06-07T03:10:28.573Z,97.70
2019-06-07T03:12:54.236Z,98.00
2019-06-07T03:15:35.418Z,98.00
2019-06-07T03:17:56.455Z,97.80
2019-06-07T03:20:23.489Z,98.10
2019-06-07T03:22:50.525Z,97.70
2019-06-07T03:25:17.479Z,97.70
2019-06-07T03:27:50.061Z,97.60
2019-06-07T03:30:36.119Z,97.60
2019-06-07T03:32:45.772Z,97.30
2019-06-07T03:35:05.333Z,97.60
2019-06-07T03:37:37.642Z,97.70
2019-06-07T03:39:59.195Z,98.00
2019-06-07T03:42:26.653Z,97.90
2019-06-07T03:44:54.620Z,97.80
2019-06-07T03:47:21.646Z,98.10
2019-06-07T03:49:48.577Z,97.70
2019-06-07T03:52:15.524Z,97.80
2019-06-07T03:54:42.627Z,98.10
2019-06-07T03:57:09.593Z,98.20
2019-06-07T03:59:40.857Z,97.80
2019-06-07T04:02:03.492Z,98.20
2019-06-07T04:04:32.281Z,98.10
2019-06-07T04:06:57.411Z,97.80
2019-06-07T04:09:24.384Z,97.70
2019-06-07T04:11:51.335Z,97.50
2019-06-07T04:14:18.318Z,97.40
2019-06-07T04:16:45.268Z,97.20
2019-06-07T04:19:12.227Z,97.10
2019-06-07T04:21:42.537Z,97.10
2019-06-07T04:31:28.267Z,97.10
2019-06-07T04:33:54.136Z,97.20
2019-06-07T04:38:48.103Z,97.30
2019-06-07T04:41:15.293Z,97.20
2019-06-07T04:43:42.822Z,97.40
2019-06-07T04:51:04.998Z,97.40
2019-06-07T04:58:25.840Z,97.00
2019-06-07T05:00:59.274Z,96.90
2019-06-07T05:03:19.749Z,97.20
2019-06-07T05:08:27.564Z,96.70
2019-06-07T05:10:43.675Z,96.50
2019-06-07T05:13:07.599Z,96.80
2019-06-07T05:15:35.249Z,96.30
2019-06-07T05:18:01.557Z,95.70
2019-06-07T05:20:29.421Z,96.00
2019-06-07T05:22:55.472Z,95.00
2019-06-07T05:25:22.465Z,95.30
2019-06-07T05:27:49.432Z,95.50
2019-06-07T05:32:57.282Z,94.50
2019-06-07T05:35:24.255Z,94.70
2019-06-07T05:37:51.184Z,94.00
2019-06-07T05:40:21.399Z,94.30
2019-06-07T05:42:47.097Z,93.90
2019-06-07T05:45:13.980Z,93.80
2019-06-07T05:47:50.073Z,93.90
2019-06-07T05:50:38.092Z,93.60
2019-06-07T05:52:39.782Z,92.50
2019-06-07T05:55:03.202Z,92.80
2019-06-07T05:57:30.236Z,92.70
2019-06-07T05:59:57.281Z,92.90
2019-06-07T06:02:25.037Z,92.50
2019-06-07T06:04:51.199Z,91.90
2019-06-07T06:07:18.169Z,92.10
2019-06-07T06:09:46.118Z,92.10
2019-06-07T06:12:12.085Z,91.90
2019-06-07T06:14:40.965Z,91.80
2019-06-07T06:17:06.033Z,90.80
2019-06-07T06:19:32.981Z,91.40
2019-06-07T06:22:00.013Z,90.80
2019-06-07T06:24:26.991Z,90.80
2019-06-07T06:27:00.224Z,90.70
2019-06-07T06:29:20.901Z,90.30
2019-06-07T06:32:35.053Z,90.20
2019-06-07T06:34:14.947Z,89.70
2019-06-07T06:36:44.621Z,88.90
2019-06-07T06:39:08.891Z,88.50
2019-06-07T06:41:46.094Z,88.20
2019-06-07T06:44:02.841Z,87.80
2019-06-07T06:46:39.105Z,87.20
2019-06-07T06:48:57.179Z,87.30
2019-06-07T06:51:24.115Z,87.20
2019-06-07T06:53:52.515Z,87.00
2019-06-07T06:56:18.187Z,86.40
2019-06-07T06:59:35.224Z,85.90
2019-06-07T07:01:11.995Z,86.70
2019-06-07T07:06:25.197Z,83.50
2019-06-07T07:08:32.905Z,84.10
2019-06-07T07:10:59.892Z,83.80
2019-06-07T07:13:26.853Z,83.20
2019-06-07T07:15:58.051Z,83.00
2019-06-07T07:18:20.831Z,81.00
2019-06-07T07:20:50.399Z,81.00
2019-06-07T07:23:14.762Z,81.80
2019-06-07T07:25:43.515Z,81.70
2019-06-07T07:28:08.738Z,82.00
2019-06-07T07:30:41.948Z,80.80
2019-06-07T07:33:07.263Z,81.50
2019-06-07T07:35:34.230Z,80.60
2019-06-07T07:38:01.190Z,80.40
2019-06-07T07:40:57.238Z,80.20
2019-06-07T07:42:56.730Z,79.70
2019-06-07T07:45:22.041Z,78.30
2019-06-07T07:48:03.214Z,78.10
2019-06-07T07:50:16.223Z,78.90
2019-06-07T07:52:45.871Z,77.30
2019-06-07T07:55:10.232Z,78.10
2019-06-07T07:57:37.147Z,77.00
2019-06-07T08:00:48.076Z,76.10
2019-06-07T08:02:31.364Z,76.10
2019-06-07T08:05:23.239Z,76.50
2019-06-07T08:07:25.232Z,75.50
2019-06-07T08:09:59.515Z,73.90
2019-06-07T08:12:19.142Z,73.80
2019-06-07T08:14:47.807Z,72.70
2019-06-07T08:17:13.073Z,74.20
2019-06-07T08:19:40.041Z,72.70
2019-06-07T08:22:06.996Z,73.00
2019-06-07T08:24:33.982Z,72.30
2019-06-07T08:27:24.216Z,70.70
2019-06-07T08:29:43.784Z,71.50
2019-06-07T08:31:57.632Z,70.80
2019-06-07T08:34:21.771Z,71.10
2019-06-07T08:36:49.970Z,71.00
2019-06-07T08:39:15.680Z,71.00
2019-06-07T08:41:53.990Z,70.20
2019-06-07T08:44:22.850Z,71.70
2019-06-07T08:46:36.548Z,70.40
2019-06-07T08:49:04.772Z,69.40
2019-06-07T08:51:30.859Z,68.90
2019-06-07T08:54:20.756Z,69.10
2019-06-07T08:56:24.827Z,69.90
2019-06-07T08:58:54.945Z,69.40
2019-06-07T09:01:18.661Z,68.40
2019-06-07T09:03:45.640Z,69.20
2019-06-07T09:08:39.657Z,67.20
2019-06-07T09:11:11.270Z,66.20
2019-06-07T09:13:33.642Z,65.90
2019-06-07T09:16:04.951Z,66.30
2019-06-07T09:18:41.859Z,65.40
2019-06-07T09:20:55.668Z,66.20
2019-06-07T09:25:57.277Z,63.60
2019-06-07T09:28:19.808Z,63.20
2019-06-07T09:30:43.293Z,62.00
2019-06-07T09:33:10.408Z,62.70
2019-06-07T09:35:37.777Z,63.50
2019-06-07T09:38:22.964Z,62.20
2019-06-07T09:40:31.685Z,61.90
2019-06-07T09:43:47.404Z,62.30
2019-06-07T09:45:25.599Z,60.80
2019-06-07T09:47:52.633Z,61.80
2019-06-07T09:50:19.583Z,60.40
2019-06-07T09:52:58.803Z,61.00
2019-06-07T09:55:23.660Z,59.50
2019-06-07T09:57:41.919Z,59.90
2019-06-07T10:00:38.651Z,59.20
2019-06-07T10:02:39.544Z,59.40
2019-06-07T10:05:12.377Z,58.60
2019-06-07T10:07:33.454Z,58.00
2019-06-07T10:12:27.440Z,58.00
2019-06-07T10:14:54.386Z,57.60
2019-06-07T10:17:21.371Z,57.10
2019-06-07T10:19:48.358Z,57.50
2019-06-07T10:22:15.322Z,56.30
2019-06-07T10:24:42.285Z,56.90
2019-06-07T10:27:10.037Z,56.60
2019-06-07T10:29:36.196Z,55.40
2019-06-07T10:32:04.418Z,56.00
2019-06-07T10:34:30.102Z,54.60
2019-06-07T10:36:57.071Z,54.90
2019-06-07T10:39:24.017Z,55.00
2019-06-07T10:41:53.969Z,55.10
2019-06-07T10:44:17.973Z,53.60
2019-06-07T10:46:44.932Z,54.50
2019-06-07T10:49:12.266Z,54.30
2019-06-07T10:51:38.908Z,54.50
2019-06-07T10:54:23.191Z,54.70
2019-06-07T10:56:34.218Z,54.40
2019-06-07T10:59:01.181Z,53.30
2019-06-07T11:01:28.133Z,51.80
2019-06-07T11:03:55.276Z,52.40
2019-06-07T11:06:22.243Z,52.20
2019-06-07T11:08:49.614Z,52.60
2019-06-07T11:11:16.550Z,53.30
2019-06-07T11:13:43.515Z,52.90
2019-06-07T11:16:11.197Z,52.90
2019-06-07T11:18:37.528Z,52.90
2019-06-07T11:21:05.966Z,52.70
2019-06-07T11:23:31.535Z,52.00
2019-06-07T11:25:58.481Z,52.00
2019-06-07T11:28:25.430Z,52.20
2019-06-07T11:30:52.528Z,51.90
2019-06-07T11:33:19.427Z,51.60
2019-06-07T11:35:46.367Z,51.30
2019-06-07T11:38:14.567Z,51.00
2019-06-07T11:40:40.376Z,50.10
2019-06-07T11:43:08.586Z,48.90
2019-06-07T11:45:34.555Z,49.50
2019-06-07T11:48:01.500Z,49.50
2019-06-07T11:50:28.438Z,49.50
2019-06-07T11:52:55.393Z,48.50
2019-06-07T11:55:22.828Z,49.00
2019-06-07T11:57:49.788Z,49.60
2019-06-07T12:00:18.440Z,50.60
2019-06-07T12:05:14.862Z,49.30
2019-06-07T12:07:37.934Z,49.90
2019-06-07T12:10:04.992Z,48.20
2019-06-07T12:12:31.915Z,48.80
2019-06-07T12:14:58.904Z,49.00
2019-06-07T12:17:25.852Z,48.80
2019-06-07T12:19:52.801Z,49.40
2019-06-07T12:22:20.118Z,49.40
2019-06-07T12:24:46.718Z,48.50
2019-06-07T12:27:14.715Z,50.10
2019-06-07T12:29:40.692Z,47.90
2019-06-07T12:32:07.649Z,47.70
2019-06-07T12:34:34.605Z,48.50
2019-06-07T12:37:01.651Z,48.90
2019-06-07T12:39:28.586Z,49.70
2019-06-07T12:41:55.552Z,49.80
2019-06-07T12:44:22.855Z,50.40
2019-06-07T12:46:49.459Z,49.10
2019-06-07T12:49:17.029Z,48.50
2019-06-07T12:51:43.456Z,47.20
2019-06-07T12:54:10.435Z,48.00
2019-06-07T12:56:38.070Z,48.60
2019-06-07T12:59:05.023Z,47.60
2019-06-07T13:01:31.980Z,48.10
2019-06-07T13:03:58.957Z,47.10
2019-06-07T13:06:26.025Z,46.90
2019-06-07T13:08:53.044Z,47.80
2019-06-07T13:11:25.248Z,47.50
2019-06-07T13:13:48.092Z,48.50
2019-06-07T13:16:16.316Z,48.40
2019-06-07T13:18:41.973Z,49.20
2019-06-07T13:21:08.945Z,49.10
2019-06-07T13:23:35.937Z,49.70
2019-06-07T13:26:02.913Z,48.60
2019-06-07T13:30:57.016Z,47.00
2019-06-07T13:33:25.645Z,47.00
2019-06-07T13:35:50.956Z,47.60
2019-06-07T13:38:24.345Z,47.60
2019-06-07T13:40:50.560Z,47.70
2019-06-07T13:43:17.530Z,46.60
2019-06-07T13:45:44.470Z,47.10
2019-06-07T13:48:11.538Z,47.90
2019-06-07T13:53:05.560Z,48.30
2019-06-07T13:55:32.515Z,47.50
2019-06-07T13:57:59.847Z,47.70
2019-06-07T14:00:26.854Z,47.20
2019-06-07T14:02:53.853Z,47.80
2019-06-07T14:05:21.041Z,47.40
2019-06-07T14:07:47.823Z,47.70
2019-06-07T14:10:14.809Z,46.00
2019-06-07T14:12:41.789Z,46.60
2019-06-07T14:15:08.761Z,47.50
2019-06-07T14:17:35.691Z,47.00
2019-06-07T14:20:03.377Z,47.00
2019-06-07T14:22:31.206Z,47.00
2019-06-07T14:24:57.135Z,47.60
2019-06-07T14:27:25.428Z,45.50
2019-06-07T14:29:51.161Z,46.10
2019-06-07T14:32:18.103Z,46.80
2019-06-07T14:34:45.112Z,47.50
2019-06-07T14:37:12.033Z,46.30
2019-06-07T14:39:38.980Z,46.80
2019-06-07T14:42:09.716Z,46.90
2019-06-07T14:44:33.882Z,47.30
2019-06-07T14:46:59.898Z,46.90
2019-06-07T14:49:28.124Z,44.80
2019-06-07T14:51:53.839Z,45.40
2019-06-07T14:54:20.795Z,45.70
2019-06-07T14:56:47.775Z,46.30
2019-06-07T14:59:17.198Z,46.00
2019-06-07T15:01:44.151Z,45.40
2019-06-07T15:04:11.132Z,45.70
2019-06-07T15:06:38.943Z,44.20
2019-06-07T15:09:05.579Z,44.80
2019-06-07T15:11:33.152Z,45.30
2019-06-07T15:13:59.582Z,45.10
2019-06-07T15:16:27.414Z,45.50
2019-06-07T15:18:53.473Z,46.50
2019-06-07T15:21:20.450Z,46.00
2019-06-07T15:23:47.416Z,46.00
2019-06-07T15:26:14.373Z,46.20
2019-06-07T15:28:41.471Z,46.40
2019-06-07T15:31:08.359Z,45.60
2019-06-07T15:33:36.533Z,46.50
2019-06-07T15:36:02.377Z,46.20
2019-06-07T15:38:30.940Z,46.40
2019-06-07T15:40:56.356Z,44.80
2019-06-07T15:43:23.289Z,45.40
2019-06-07T15:45:50.263Z,45.00
2019-06-07T15:48:17.257Z,45.60
2019-06-07T15:50:44.198Z,45.90
2019-06-07T15:53:11.196Z,46.10
2019-06-07T15:55:43.846Z,46.00
2019-06-07T15:58:05.195Z,46.50
2019-06-07T16:00:33.343Z,45.90
2019-06-07T16:02:59.578Z,45.80
2019-06-07T16:05:26.516Z,45.70
2019-06-07T16:07:53.499Z,46.10
2019-06-07T16:10:20.466Z,46.20
2019-06-07T16:12:59.660Z,46.80
2019-06-07T16:15:14.405Z,46.60
2019-06-07T16:17:42.072Z,46.40
2019-06-07T16:20:08.543Z,45.30
2019-06-07T16:22:35.798Z,45.20
2019-06-07T16:25:02.623Z,45.80
2019-06-07T16:27:29.884Z,46.00
2019-06-07T16:29:56.848Z,46.40
2019-06-07T16:32:23.833Z,46.00
2019-06-07T16:34:51.699Z,45.30
2019-06-07T16:37:18.666Z,45.10
2019-06-07T16:39:45.640Z,45.60
2019-06-07T16:42:12.616Z,45.70
2019-06-07T16:44:40.615Z,46.10
2019-06-07T16:47:06.623Z,46.40
2019-06-07T16:49:33.556Z,48.60
2019-06-07T16:52:00.508Z,52.10
2019-06-07T16:54:27.480Z,53.60
2019-06-07T16:56:54.513Z,57.00
2019-06-07T16:59:21.513Z,58.00
2019-06-07T17:01:49.841Z,58.80
2019-06-07T17:04:16.755Z,58.90
2019-06-07T17:06:43.778Z,60.10
2019-06-07T17:09:10.667Z,62.70
2019-06-07T17:11:38.213Z,66.90
2019-06-07T17:23:53.404Z,57.40
2019-06-07T17:36:10.679Z,62.00
2019-06-07T17:38:37.696Z,62.60
2019-06-07T17:43:31.655Z,64.70
2019-06-07T17:45:58.595Z,65.40
2019-06-07T17:50:52.887Z,63.50
2019-06-07T17:53:19.619Z,63.50
2019-06-07T18:10:33.910Z,63.80
2019-06-07T19:04:42.750Z,62.20
2019-06-07T19:07:09.808Z,62.50
2019-06-07T19:09:36.858Z,61.90
2019-06-07T19:24:19.056Z,61.40
2019-06-07T19:26:46.008Z,61.40
2019-06-07T19:36:48.012Z,62.00
2019-06-07T19:41:28.754Z,62.00
2019-06-07T19:48:50.077Z,62.40
2019-06-07T19:51:20.235Z,62.20
2019-06-07T19:56:11.113Z,62.30
2019-06-07T19:58:38.063Z,62.50
2019-06-07T20:03:32.037Z,61.90
2019-06-07T20:06:02.399Z,61.40
2019-06-07T20:08:28.291Z,61.70
2019-06-07T20:10:56.438Z,61.20
2019-06-07T20:13:22.350Z,62.00
2019-06-07T20:15:49.311Z,62.70
2019-06-07T20:18:16.291Z,61.50
2019-06-07T20:20:43.449Z,61.30
2019-06-07T20:23:10.396Z,61.60
2019-06-07T20:25:37.354Z,62.30
2019-06-07T20:28:05.576Z,62.40
2019-06-07T20:30:31.256Z,63.10
2019-06-07T20:32:59.681Z,63.30
2019-06-07T20:35:25.157Z,63.90
2019-06-07T20:37:52.231Z,64.70
2019-06-07T20:40:24.096Z,64.60
2019-06-07T20:42:46.163Z,63.30
2019-06-07T20:45:13.095Z,64.10
2019-06-07T20:47:40.012Z,62.70
2019-06-07T20:50:08.474Z,61.80
2019-06-07T20:52:34.081Z,61.80
2019-06-07T20:55:01.026Z,62.60
2019-06-07T20:57:27.972Z,63.40
2019-06-07T20:59:54.923Z,64.50
2019-06-07T21:02:21.866Z,62.90
2019-06-07T21:04:48.823Z,62.50
2019-06-07T21:07:16.937Z,62.60
2019-06-07T21:09:43.880Z,62.50
2019-06-07T21:12:10.852Z,63.20
2019-06-07T21:14:37.844Z,62.50
2019-06-07T21:17:06.114Z,63.10
2019-06-07T21:19:31.837Z,63.80
2019-06-07T21:21:58.733Z,63.80
2019-06-07T21:24:25.669Z,64.20
2019-06-07T21:26:53.507Z,64.80
2019-06-07T21:29:19.579Z,62.60
2019-06-07T21:31:46.515Z,64.20
2019-06-07T21:34:14.237Z,63.50
2019-06-07T21:36:40.978Z,62.80
2019-06-07T21:39:08.348Z,62.70
2019-06-07T21:41:34.889Z,62.40
2019-06-07T21:44:02.416Z,62.40
2019-06-07T21:53:49.991Z,74.60
2019-06-07T21:56:16.945Z,81.10
2019-06-07T21:58:43.915Z,81.10
2019-06-07T22:01:17.368Z,80.80
2019-06-07T22:03:44.331Z,79.10
2019-06-07T22:08:38.932Z,82.20
2019-06-07T22:11:06.130Z,82.50
2019-06-07T22:13:32.823Z,82.30
2019-06-07T22:23:20.927Z,86.40
2019-06-07T22:28:14.911Z,87.80
2019-06-07T22:30:41.840Z,87.70
2019-06-07T22:40:29.863Z,90.10
2019-06-07T23:12:36.165Z,91.60
2019-06-07T23:15:03.215Z,91.70
2019-06-07T23:17:30.163Z,92.00
2019-06-07T23:22:24.180Z,91.40
2019-06-07T23:24:51.124Z,90.50
2019-06-07T23:27:18.434Z,90.40
2019-06-07T23:29:45.082Z,90.70
2019-06-07T23:34:39.025Z,90.50
2019-06-07T23:37:06.032Z,90.20
2019-06-07T23:44:27.055Z,89.80
2019-06-07T23:49:22.434Z,90.00
2019-06-07T23:56:42.070Z,90.20
2019-06-07T23:59:09.022Z,90.60
